createdAt,value
2018-07-11T00:00:23.338Z,9.47
2018-07-11T00:05:40.184Z,9.20
2018-07-11T00:08:09.495Z,8.33
2018-07-11T00:10:38.652Z,8.33
2018-07-11T00:13:12.578Z,9.00
2018-07-11T00:21:17.028Z,8.10
2018-07-11T00:23:51.261Z,8.70
2018-07-11T00:31:58.682Z,7.60
2018-07-11T00:34:25.608Z,7.80
2018-07-11T00:36:54.289Z,7.53
2018-07-11T00:39:23.423Z,7.37
2018-07-11T00:41:52.415Z,6.97
2018-07-11T00:47:08.743Z,8.13
2018-07-11T00:49:40.307Z,8.03
2018-07-11T00:54:56.529Z,9.60
2018-07-11T00:57:26.365Z,9.23
2018-07-11T00:59:55.280Z,8.53
2018-07-11T01:02:23.957Z,8.93
2018-07-11T01:04:52.591Z,8.80
2018-07-11T01:07:21.266Z,8.67
2018-07-11T01:09:50.276Z,8.10
2018-07-11T01:12:22.363Z,10.57
2018-07-11T01:14:57.800Z,8.55
2018-07-11T01:17:28.319Z,8.82
2018-07-11T01:19:59.424Z,8.10
2018-07-11T01:22:28.098Z,7.83
2018-07-11T01:24:57.018Z,8.00
2018-07-11T01:30:13.313Z,7.73
2018-07-11T01:32:42.421Z,9.90
2018-07-11T01:35:11.516Z,8.53
2018-07-11T01:37:40.321Z,9.20
2018-07-11T01:40:08.968Z,11.00
2018-07-11T01:42:37.658Z,8.53
2018-07-11T01:47:54.097Z,8.30
2018-07-11T01:50:22.769Z,8.20
2018-07-11T01:52:51.438Z,8.67
2018-07-11T01:55:20.073Z,8.70
2018-07-11T01:57:48.750Z,8.43
2018-07-11T02:00:17.406Z,7.57
2018-07-11T02:02:46.175Z,8.43
2018-07-11T02:05:14.839Z,10.13
2018-07-11T02:07:43.533Z,8.30
2018-07-11T02:10:13.173Z,9.20
2018-07-11T02:12:43.374Z,8.03
2018-07-11T02:15:12.633Z,8.63
2018-07-11T02:17:41.839Z,10.37
2018-07-11T02:20:11.920Z,9.00
2018-07-11T02:22:40.935Z,9.00
2018-07-11T02:25:18.814Z,8.87
2018-07-11T02:27:47.944Z,9.13
2018-07-11T02:30:17.624Z,8.87
2018-07-11T02:32:46.691Z,9.70
2018-07-11T02:35:15.620Z,9.47
2018-07-11T02:37:44.779Z,9.37
2018-07-11T02:40:14.231Z,8.93
2018-07-11T02:42:43.325Z,9.73
2018-07-11T02:45:12.270Z,11.73
2018-07-11T02:47:40.930Z,9.20
2018-07-11T02:50:09.625Z,10.43
2018-07-11T02:55:25.911Z,9.93
2018-07-11T02:57:54.618Z,9.93
2018-07-11T03:00:23.313Z,9.30
2018-07-11T03:02:51.932Z,9.63
2018-07-11T03:05:20.625Z,9.60
2018-07-11T03:07:49.283Z,9.33
2018-07-11T03:10:18.067Z,9.00
2018-07-11T03:12:48.458Z,11.10
2018-07-11T03:15:17.160Z,11.18
2018-07-11T03:17:46.878Z,9.80
2018-07-11T03:25:53.174Z,9.87
2018-07-11T03:28:21.895Z,9.40
2018-07-11T03:30:50.472Z,9.27
2018-07-11T03:33:19.165Z,8.83
2018-07-11T03:35:47.818Z,8.43
2018-07-11T03:38:16.460Z,8.70
2018-07-11T03:40:45.157Z,8.27
2018-07-11T03:43:13.809Z,8.30
2018-07-11T03:45:42.516Z,9.47
2018-07-11T03:48:11.160Z,9.43
2018-07-11T03:50:39.893Z,9.30
2018-07-11T03:53:08.551Z,9.20
2018-07-11T04:12:21.778Z,10.40
2018-07-11T04:14:50.767Z,10.53
2018-07-11T04:17:19.914Z,10.30
2018-07-11T04:19:49.532Z,10.63
2018-07-11T04:22:18.295Z,10.20
2018-07-11T04:27:36.606Z,10.13
2018-07-11T04:30:05.600Z,10.50
2018-07-11T04:32:34.855Z,10.33
2018-07-11T04:35:03.601Z,12.23
2018-07-11T04:37:32.380Z,12.37
2018-07-11T04:40:01.690Z,9.93
2018-07-11T04:42:31.188Z,9.53
2018-07-11T04:44:59.815Z,9.53
2018-07-11T04:47:33.667Z,9.80
2018-07-11T04:50:02.667Z,9.93
2018-07-11T04:52:33.944Z,9.43
2018-07-11T04:55:05.835Z,9.55
2018-07-11T05:00:24.356Z,11.63
2018-07-11T05:02:54.643Z,10.40
2018-07-11T05:05:23.875Z,8.60
2018-07-11T05:07:52.953Z,8.15
2018-07-11T05:10:23.593Z,9.05
2018-07-11T05:12:52.681Z,9.75
2018-07-11T05:15:21.828Z,9.77
2018-07-11T05:17:54.290Z,8.43
2018-07-11T05:20:25.743Z,7.32
2018-07-11T05:22:55.779Z,7.97
2018-07-11T05:25:25.416Z,8.98
2018-07-11T05:27:55.802Z,9.05
2018-07-11T05:30:26.282Z,9.20
2018-07-11T05:32:55.182Z,9.38
2018-07-11T05:35:26.677Z,9.18
2018-07-11T05:37:57.163Z,10.27
2018-07-11T05:40:27.316Z,9.25
2018-07-11T05:42:56.524Z,8.18
2018-07-11T05:45:29.090Z,8.35
2018-07-11T05:47:59.274Z,8.55
2018-07-11T05:50:39.687Z,7.85
2018-07-11T05:53:08.902Z,8.15
2018-07-11T05:55:38.084Z,7.75
2018-07-11T05:58:07.030Z,7.32
2018-07-11T06:25:31.099Z,5.55
2018-07-11T06:39:18.842Z,5.50
2018-07-11T07:33:02.487Z,3.30
2018-07-11T07:41:22.184Z,4.03
2018-07-11T07:43:55.603Z,4.00
2018-07-11T07:57:52.450Z,5.37
2018-07-11T08:06:08.519Z,5.70
2018-07-11T08:54:30.954Z,5.43
2018-07-11T09:14:05.143Z,3.03
2018-07-11T09:16:40.108Z,3.65
2018-07-11T09:19:17.420Z,3.58
2018-07-11T09:36:01.814Z,3.90
2018-07-11T09:38:32.209Z,4.40
2018-07-11T09:41:02.427Z,4.30
2018-07-11T11:30:29.712Z,3.67
2018-07-11T11:33:08.474Z,4.05
2018-07-11T12:09:13.148Z,6.10
2018-07-11T12:20:11.568Z,6.57
2018-07-11T12:53:42.976Z,4.07
2018-07-11T14:23:32.468Z,3.62
2018-07-11T14:40:19.118Z,2.42
2018-07-11T14:42:58.897Z,2.92
2018-07-11T14:45:31.089Z,2.85
2018-07-11T14:48:03.914Z,2.80
2018-07-11T14:53:28.487Z,3.35
2018-07-11T14:56:00.844Z,4.12
2018-07-11T15:01:33.406Z,3.80
2018-07-11T15:04:04.018Z,3.90
2018-07-11T15:09:22.232Z,6.03
2018-07-11T15:11:50.719Z,4.35
2018-07-11T15:17:07.615Z,2.75
2018-07-11T15:19:36.721Z,4.72
2018-07-11T15:22:06.010Z,5.22
2018-07-11T15:24:35.015Z,4.80
2018-07-11T15:27:04.760Z,5.15
2018-07-11T15:29:34.942Z,4.43
2018-07-11T15:35:00.786Z,4.00
2018-07-11T15:37:33.454Z,4.12
2018-07-11T15:40:03.985Z,4.90
2018-07-11T15:42:38.576Z,3.10
2018-07-11T15:45:08.023Z,3.70
2018-07-11T15:47:42.534Z,3.65
2018-07-11T15:50:11.700Z,3.70
2018-07-11T15:52:40.949Z,5.27
2018-07-11T15:55:09.969Z,4.65
2018-07-11T15:57:38.981Z,5.37
2018-07-11T16:00:08.460Z,4.55
2018-07-11T16:02:37.439Z,4.45
2018-07-11T16:05:06.818Z,4.80
2018-07-11T16:07:35.527Z,3.90
2018-07-11T16:10:04.434Z,4.53
2018-07-11T16:12:33.866Z,4.12
2018-07-11T16:15:02.689Z,5.70
2018-07-11T16:17:31.558Z,6.18
2018-07-11T16:20:00.225Z,4.40
2018-07-11T16:22:29.314Z,4.80
2018-07-11T16:24:58.087Z,5.75
2018-07-11T16:27:26.779Z,5.40
2018-07-11T16:29:56.437Z,5.43
2018-07-11T16:32:25.191Z,4.53
2018-07-11T16:34:53.907Z,3.83
2018-07-11T16:37:22.620Z,5.20
2018-07-11T16:39:51.554Z,4.73
2018-07-11T16:42:20.502Z,6.95
2018-07-11T16:44:50.127Z,4.37
2018-07-11T16:47:19.819Z,3.65
2018-07-11T16:49:48.950Z,5.32
2018-07-11T16:52:17.526Z,4.30
2018-07-11T16:54:46.349Z,4.57
2018-07-11T16:57:15.135Z,4.50
2018-07-11T16:59:44.073Z,5.25
2018-07-11T17:02:14.489Z,4.90
2018-07-11T17:04:46.108Z,5.25
2018-07-11T17:07:15.276Z,4.95
2018-07-11T17:09:44.958Z,5.70
2018-07-11T17:12:14.115Z,5.50
2018-07-11T17:14:43.402Z,5.30
2018-07-11T17:17:12.813Z,5.62
2018-07-11T17:19:42.108Z,7.40
2018-07-11T17:22:10.996Z,7.95
2018-07-11T17:24:41.586Z,7.45
2018-07-11T17:27:16.987Z,7.90
2018-07-11T17:29:46.206Z,6.57
2018-07-11T17:32:15.445Z,6.50
2018-07-11T17:34:44.429Z,6.05
2018-07-11T17:37:16.415Z,8.13
2018-07-11T17:39:45.834Z,6.85
2018-07-11T17:42:18.164Z,6.25
2018-07-11T17:44:47.845Z,6.50
2018-07-11T17:47:17.369Z,8.45
2018-07-11T17:49:46.451Z,6.93
2018-07-11T17:52:16.717Z,7.00
2018-07-11T17:54:46.015Z,7.00
2018-07-11T17:57:15.261Z,7.60
2018-07-11T17:59:45.070Z,7.70
2018-07-11T18:02:33.438Z,6.97
2018-07-11T18:05:02.567Z,8.13
2018-07-11T18:07:31.771Z,7.10
2018-07-11T18:10:01.182Z,7.05
2018-07-11T18:12:32.317Z,7.80
2018-07-11T18:15:02.147Z,6.97
2018-07-11T18:17:31.309Z,8.32
2018-07-11T18:20:00.632Z,8.00
2018-07-11T18:25:20.199Z,9.95
2018-07-11T18:27:49.996Z,9.07
2018-07-11T18:30:19.042Z,8.23
2018-07-11T18:32:50.206Z,8.02
2018-07-11T18:35:29.264Z,8.88
2018-07-11T18:37:58.305Z,9.18
2018-07-11T18:40:27.251Z,8.85
2018-07-11T18:42:56.351Z,8.73
2018-07-11T18:45:25.396Z,11.57
2018-07-11T18:50:42.610Z,8.40
2018-07-11T18:53:14.515Z,11.05
2018-07-11T18:55:43.797Z,8.98
2018-07-11T18:58:16.017Z,7.60
2018-07-11T19:00:44.973Z,6.82
2018-07-11T19:03:14.260Z,7.10
2018-07-11T19:05:44.285Z,7.00
2018-07-11T19:08:14.535Z,7.03
2018-07-11T19:10:51.876Z,8.48
2018-07-11T19:16:20.940Z,7.72
2018-07-11T19:19:04.411Z,8.13
2018-07-11T19:21:46.420Z,7.32
2018-07-11T19:24:19.770Z,6.83
2018-07-11T19:27:01.495Z,6.97
2018-07-11T19:32:30.675Z,8.77
2018-07-11T19:35:01.586Z,8.02
2018-07-11T19:37:30.389Z,7.82
2018-07-11T19:39:59.253Z,7.87
2018-07-11T19:42:34.946Z,8.75
2018-07-11T19:45:09.132Z,9.05
2018-07-11T19:47:42.510Z,8.03
2018-07-11T19:50:19.072Z,9.02
2018-07-11T19:52:51.384Z,8.52
2018-07-11T19:55:20.266Z,8.82
2018-07-11T19:57:49.762Z,8.63
2018-07-11T20:00:18.814Z,8.45
2018-07-11T20:02:49.655Z,10.50
2018-07-11T20:05:19.043Z,8.47
2018-07-11T20:07:47.894Z,8.37
2018-07-11T20:10:16.735Z,8.93
2018-07-11T20:12:45.697Z,8.47
2018-07-11T20:15:17.674Z,8.37
2018-07-11T20:17:47.430Z,7.67
2018-07-11T20:20:16.729Z,8.67
2018-07-11T20:22:45.654Z,8.47
2018-07-11T20:25:15.224Z,8.50
2018-07-11T20:27:44.283Z,8.27
2018-07-11T20:30:13.949Z,12.82
2018-07-11T20:32:43.624Z,9.55
2018-07-11T20:35:18.996Z,8.77
2018-07-11T20:37:53.926Z,9.50
2018-07-11T20:40:22.843Z,8.87
2018-07-11T20:42:54.932Z,7.13
2018-07-11T20:45:23.772Z,7.60
2018-07-11T20:47:56.217Z,10.63
2018-07-11T20:50:26.143Z,8.40
2018-07-11T20:52:55.949Z,11.55
2018-07-11T20:55:41.082Z,9.03
2018-07-11T20:58:10.350Z,8.50
2018-07-11T21:01:17.263Z,7.83
2018-07-11T21:03:50.898Z,10.70
2018-07-11T21:11:58.546Z,7.50
2018-07-11T21:14:28.119Z,7.53
2018-07-11T21:16:57.483Z,7.13
2018-07-11T21:19:31.418Z,7.07
2018-07-11T21:22:01.136Z,6.90
2018-07-11T21:24:33.271Z,6.67
2018-07-11T21:27:02.877Z,7.87
2018-07-11T21:29:35.687Z,7.23
2018-07-11T21:32:05.351Z,10.65
2018-07-11T21:34:34.998Z,8.17
2018-07-11T21:37:04.955Z,7.87
2018-07-11T21:39:34.356Z,8.27
2018-07-11T21:42:03.655Z,8.13
2018-07-11T21:44:34.793Z,7.90
2018-07-11T21:47:07.168Z,7.63
2018-07-11T21:49:36.769Z,7.33
2018-07-11T21:52:14.046Z,8.17
2018-07-11T21:54:43.621Z,8.03
2018-07-11T21:57:14.412Z,7.80
2018-07-11T21:59:49.536Z,7.20
2018-07-11T22:02:19.902Z,10.82
2018-07-11T22:07:37.735Z,7.80
2018-07-11T22:10:07.336Z,7.40
2018-07-11T22:12:36.600Z,9.10
2018-07-11T22:15:06.048Z,7.90
2018-07-11T22:20:22.767Z,6.73
2018-07-11T22:22:51.262Z,6.13
2018-07-11T22:25:22.220Z,6.57
2018-07-11T22:27:51.122Z,6.10
2018-07-11T22:30:20.135Z,6.53
2018-07-11T22:32:49.046Z,6.03
2018-07-11T22:35:19.933Z,6.40
2018-07-11T22:40:36.225Z,7.10
2018-07-11T22:43:06.088Z,7.40
2018-07-11T22:45:34.803Z,7.07
2018-07-11T22:50:54.654Z,6.83
2018-07-11T22:53:23.488Z,10.23
2018-07-11T22:55:53.040Z,7.70
2018-07-11T22:58:22.041Z,10.60
2018-07-11T23:00:51.159Z,10.97
2018-07-11T23:03:19.690Z,10.68
2018-07-11T23:05:48.181Z,8.13
2018-07-11T23:08:16.663Z,7.53
2018-07-11T23:10:50.826Z,6.77
2018-07-11T23:13:19.626Z,6.83
2018-07-11T23:15:51.376Z,6.13
2018-07-11T23:18:22.930Z,6.23
2018-07-11T23:20:52.832Z,6.23
2018-07-11T23:23:23.677Z,6.13
2018-07-11T23:25:52.301Z,6.57
2018-07-11T23:28:20.981Z,7.03
2018-07-11T23:30:48.952Z,6.90
2018-07-11T23:33:17.187Z,6.97
2018-07-11T23:35:45.156Z,7.33
2018-07-11T23:38:13.408Z,6.63
2018-07-11T23:40:41.545Z,6.97
2018-07-11T23:43:09.675Z,6.73
2018-07-11T23:45:37.806Z,6.47
2018-07-11T23:48:06.049Z,6.70
2018-07-11T23:50:34.141Z,6.73
2018-07-11T23:53:02.540Z,8.37
2018-07-11T23:55:30.594Z,7.30
2018-07-11T23:57:58.987Z,7.47
